sensor_id;sensor_type;location;lat;lon;timestamp;P1;durP1;ratioP1;P2;durP2;ratioP2
34035;SDS011;63481;52.588;22.472;2024-01-16T00:02:14;1.30;;;1.30;;
34035;SDS011;63481;52.588;22.472;2024-01-16T00:07:16;1.60;;;1.50;;
34035;SDS011;63481;52.588;22.472;2024-01-16T00:12:18;2.30;;;1.90;;
34035;SDS011;63481;52.588;22.472;2024-01-16T00:17:20;7.80;;;1.80;;
34035;SDS011;63481;52.588;22.472;2024-01-16T00:22:22;1.60;;;1.50;;
34035;SDS011;63481;52.588;22.472;2024-01-16T00:27:25;1.90;;;1.80;;
34035;SDS011;63481;52.588;22.472;2024-01-16T00:32:27;1.40;;;1.30;;
34035;SDS011;63481;52.588;22.472;2024-01-16T00:37:29;1.50;;;1.40;;
34035;SDS011;63481;52.588;22.472;2024-01-16T00:42:31;1.20;;;1.20;;
34035;SDS011;63481;52.588;22.472;2024-01-16T00:47:34;1.70;;;1.60;;
34035;SDS011;63481;52.588;22.472;2024-01-16T00:52:36;1.50;;;1.40;;
34035;SDS011;63481;52.588;22.472;2024-01-16T00:57:38;1.40;;;1.40;;
34035;SDS011;63481;52.588;22.472;2024-01-16T01:02:40;1.30;;;1.30;;
34035;SDS011;63481;52.588;22.472;2024-01-16T01:07:43;1.60;;;1.50;;
34035;SDS011;63481;52.588;22.472;2024-01-16T01:12:45;1.30;;;1.30;;
34035;SDS011;63481;52.588;22.472;2024-01-16T01:17:50;1.30;;;1.30;;
34035;SDS011;63481;52.588;22.472;2024-01-16T01:22:53;1.70;;;1.60;;
34035;SDS011;63481;52.588;22.472;2024-01-16T01:27:55;1.30;;;1.30;;
34035;SDS011;63481;52.588;22.472;2024-01-16T01:32:57;1.30;;;1.30;;
34035;SDS011;63481;52.588;22.472;2024-01-16T01:37:59;1.60;;;1.40;;
34035;SDS011;63481;52.588;22.472;2024-01-16T01:43:17;1.30;;;1.30;;
34035;SDS011;63481;52.588;22.472;2024-01-16T01:48:21;1.60;;;1.50;;
34035;SDS011;63481;52.588;22.472;2024-01-16T01:53:24;1.20;;;1.20;;
34035;SDS011;63481;52.588;22.472;2024-01-16T01:58:26;1.60;;;1.50;;
34035;SDS011;63481;52.588;22.472;2024-01-16T02:03:29;1.70;;;1.60;;
34035;SDS011;63481;52.588;22.472;2024-01-16T02:08:37;1.40;;;1.30;;
34035;SDS011;63481;52.588;22.472;2024-01-16T02:13:40;1.50;;;1.40;;
34035;SDS011;63481;52.588;22.472;2024-01-16T02:18:43;1.30;;;1.30;;
34035;SDS011;63481;52.588;22.472;2024-01-16T02:23:45;1.70;;;1.50;;
34035;SDS011;63481;52.588;22.472;2024-01-16T02:28:48;1.30;;;1.30;;
34035;SDS011;63481;52.588;22.472;2024-01-16T02:33:50;1.70;;;1.60;;
34035;SDS011;63481;52.588;22.472;2024-01-16T02:38:52;1.30;;;1.30;;
34035;SDS011;63481;52.588;22.472;2024-01-16T02:43:54;1.60;;;1.50;;
34035;SDS011;63481;52.588;22.472;2024-01-16T02:48:57;2.70;;;1.70;;
34035;SDS011;63481;52.588;22.472;2024-01-16T02:53:59;1.50;;;1.40;;
34035;SDS011;63481;52.588;22.472;2024-01-16T02:59:01;1.40;;;1.40;;
34035;SDS011;63481;52.588;22.472;2024-01-16T03:04:03;2.00;;;1.50;;
34035;SDS011;63481;52.588;22.472;2024-01-16T03:09:05;1.40;;;1.40;;
34035;SDS011;63481;52.588;22.472;2024-01-16T03:14:08;1.70;;;1.60;;
34035;SDS011;63481;52.588;22.472;2024-01-16T03:19:10;1.70;;;1.60;;
34035;SDS011;63481;52.588;22.472;2024-01-16T03:24:13;1.50;;;1.40;;
34035;SDS011;63481;52.588;22.472;2024-01-16T03:29:16;1.30;;;1.30;;
34035;SDS011;63481;52.588;22.472;2024-01-16T03:34:18;1.70;;;1.60;;
34035;SDS011;63481;52.588;22.472;2024-01-16T03:39:20;1.60;;;1.50;;
34035;SDS011;63481;52.588;22.472;2024-01-16T03:44:22;1.60;;;1.50;;
34035;SDS011;63481;52.588;22.472;2024-01-16T03:49:24;1.30;;;1.30;;
34035;SDS011;63481;52.588;22.472;2024-01-16T03:54:27;3.00;;;1.80;;
34035;SDS011;63481;52.588;22.472;2024-01-16T03:59:29;1.10;;;1.10;;
34035;SDS011;63481;52.588;22.472;2024-01-16T04:04:31;1.50;;;1.40;;
34035;SDS011;63481;52.588;22.472;2024-01-16T04:09:33;1.40;;;1.30;;
34035;SDS011;63481;52.588;22.472;2024-01-16T04:14:35;2.90;;;2.60;;
34035;SDS011;63481;52.588;22.472;2024-01-16T04:19:37;1.60;;;1.50;;
34035;SDS011;63481;52.588;22.472;2024-01-16T04:24:41;1.60;;;1.50;;
34035;SDS011;63481;52.588;22.472;2024-01-16T04:29:43;1.50;;;1.40;;
34035;SDS011;63481;52.588;22.472;2024-01-16T04:34:45;1.30;;;1.30;;
34035;SDS011;63481;52.588;22.472;2024-01-16T04:39:47;2.10;;;1.90;;
34035;SDS011;63481;52.588;22.472;2024-01-16T04:44:49;2.90;;;2.70;;
34035;SDS011;63481;52.588;22.472;2024-01-16T04:49:51;1.70;;;1.60;;
34035;SDS011;63481;52.588;22.472;2024-01-16T04:54:53;1.70;;;1.50;;
34035;SDS011;63481;52.588;22.472;2024-01-16T04:59:55;5.60;;;2.10;;
34035;SDS011;63481;52.588;22.472;2024-01-16T05:04:57;1.50;;;1.40;;
34035;SDS011;63481;52.588;22.472;2024-01-16T05:10:00;1.90;;;1.70;;
34035;SDS011;63481;52.588;22.472;2024-01-16T05:15:02;1.60;;;1.50;;
34035;SDS011;63481;52.588;22.472;2024-01-16T05:25:07;1.60;;;1.50;;
34035;SDS011;63481;52.588;22.472;2024-01-16T05:30:10;1.80;;;1.70;;
34035;SDS011;63481;52.588;22.472;2024-01-16T05:35:14;1.50;;;1.40;;
34035;SDS011;63481;52.588;22.472;2024-01-16T05:40:16;1.30;;;1.30;;
34035;SDS011;63481;52.588;22.472;2024-01-16T05:45:18;1.40;;;1.40;;
34035;SDS011;63481;52.588;22.472;2024-01-16T05:50:21;1.60;;;1.50;;
34035;SDS011;63481;52.588;22.472;2024-01-16T05:55:23;2.10;;;1.90;;
34035;SDS011;63481;52.588;22.472;2024-01-16T06:00:25;1.50;;;1.40;;
34035;SDS011;63481;52.588;22.472;2024-01-16T06:05:27;1.50;;;1.40;;
34035;SDS011;63481;52.588;22.472;2024-01-16T06:10:29;1.40;;;1.40;;
34035;SDS011;63481;52.588;22.472;2024-01-16T06:15:31;1.60;;;1.50;;
34035;SDS011;63481;52.588;22.472;2024-01-16T06:20:33;1.30;;;1.30;;
34035;SDS011;63481;52.588;22.472;2024-01-16T06:25:35;1.90;;;1.40;;
34035;SDS011;63481;52.588;22.472;2024-01-16T06:30:38;5.10;;;1.70;;
34035;SDS011;63481;52.588;22.472;2024-01-16T06:35:40;2.10;;;1.60;;
34035;SDS011;63481;52.588;22.472;2024-01-16T06:40:42;1.80;;;1.70;;
34035;SDS011;63481;52.588;22.472;2024-01-16T06:45:44;5.60;;;1.60;;
34035;SDS011;63481;52.588;22.472;2024-01-16T06:50:46;1.30;;;1.30;;
34035;SDS011;63481;52.588;22.472;2024-01-16T06:55:48;1.30;;;1.30;;
34035;SDS011;63481;52.588;22.472;2024-01-16T07:00:50;4.80;;;2.20;;
34035;SDS011;63481;52.588;22.472;2024-01-16T07:05:52;1.30;;;1.30;;
34035;SDS011;63481;52.588;22.472;2024-01-16T07:10:54;1.60;;;1.50;;
34035;SDS011;63481;52.588;22.472;2024-01-16T07:15:58;1.40;;;1.40;;
34035;SDS011;63481;52.588;22.472;2024-01-16T07:21:00;1.60;;;1.50;;
34035;SDS011;63481;52.588;22.472;2024-01-16T07:26:03;1.40;;;1.40;;
34035;SDS011;63481;52.588;22.472;2024-01-16T07:31:05;1.40;;;1.40;;
34035;SDS011;63481;52.588;22.472;2024-01-16T07:36:08;1.70;;;1.60;;
34035;SDS011;63481;52.588;22.472;2024-01-16T07:41:11;1.60;;;1.50;;
34035;SDS011;63481;52.588;22.472;2024-01-16T07:46:13;2.50;;;1.80;;
34035;SDS011;63481;52.588;22.472;2024-01-16T07:51:15;1.30;;;1.30;;
34035;SDS011;63481;52.588;22.472;2024-01-16T07:56:17;1.60;;;1.50;;
34035;SDS011;63481;52.588;22.472;2024-01-16T08:01:20;2.00;;;1.90;;
34035;SDS011;63481;52.588;22.472;2024-01-16T08:06:22;1.70;;;1.60;;
34035;SDS011;63481;52.588;22.472;2024-01-16T08:11:25;1.50;;;1.40;;
34035;SDS011;63481;52.588;22.472;2024-01-16T08:16:27;1.80;;;1.70;;
34035;SDS011;63481;52.588;22.472;2024-01-16T08:21:29;1.30;;;1.30;;
34035;SDS011;63481;52.588;22.472;2024-01-16T08:26:31;1.70;;;1.60;;
34035;SDS011;63481;52.588;22.472;2024-01-16T08:31:33;1.60;;;1.50;;
34035;SDS011;63481;52.588;22.472;2024-01-16T08:36:36;1.60;;;1.50;;
34035;SDS011;63481;52.588;22.472;2024-01-16T08:41:39;1.60;;;1.50;;
34035;SDS011;63481;52.588;22.472;2024-01-16T08:46:41;1.70;;;1.60;;
34035;SDS011;63481;52.588;22.472;2024-01-16T08:51:43;2.30;;;2.10;;
34035;SDS011;63481;52.588;22.472;2024-01-16T08:56:45;1.70;;;1.60;;
34035;SDS011;63481;52.588;22.472;2024-01-16T09:01:47;1.60;;;1.50;;
34035;SDS011;63481;52.588;22.472;2024-01-16T09:06:49;2.60;;;2.00;;
34035;SDS011;63481;52.588;22.472;2024-01-16T09:11:52;1.50;;;1.40;;
34035;SDS011;63481;52.588;22.472;2024-01-16T09:16:54;1.40;;;1.40;;
34035;SDS011;63481;52.588;22.472;2024-01-16T09:21:56;3.10;;;1.60;;
34035;SDS011;63481;52.588;22.472;2024-01-16T09:26:58;1.40;;;1.40;;
34035;SDS011;63481;52.588;22.472;2024-01-16T09:32:00;8.90;;;2.30;;
34035;SDS011;63481;52.588;22.472;2024-01-16T09:37:02;1.70;;;1.60;;
34035;SDS011;63481;52.588;22.472;2024-01-16T09:42:05;1.60;;;1.50;;
34035;SDS011;63481;52.588;22.472;2024-01-16T09:47:07;2.80;;;2.50;;
34035;SDS011;63481;52.588;22.472;2024-01-16T09:52:12;1.50;;;1.40;;
34035;SDS011;63481;52.588;22.472;2024-01-16T09:57:15;1.90;;;1.80;;
34035;SDS011;63481;52.588;22.472;2024-01-16T10:02:22;1.60;;;1.50;;
34035;SDS011;63481;52.588;22.472;2024-01-16T10:07:25;5.10;;;1.50;;
34035;SDS011;63481;52.588;22.472;2024-01-16T10:12:30;1.40;;;1.30;;
34035;SDS011;63481;52.588;22.472;2024-01-16T10:17:36;1.80;;;1.70;;
34035;SDS011;63481;52.588;22.472;2024-01-16T10:22:39;1.80;;;1.40;;
34035;SDS011;63481;52.588;22.472;2024-01-16T10:27:42;1.90;;;1.70;;
34035;SDS011;63481;52.588;22.472;2024-01-16T10:32:45;1.40;;;1.40;;
34035;SDS011;63481;52.588;22.472;2024-01-16T10:37:49;1.60;;;1.50;;
34035;SDS011;63481;52.588;22.472;2024-01-16T10:42:59;3.60;;;1.70;;
34035;SDS011;63481;52.588;22.472;2024-01-16T10:48:03;1.30;;;1.30;;
34035;SDS011;63481;52.588;22.472;2024-01-16T10:53:07;1.40;;;1.30;;
34035;SDS011;63481;52.588;22.472;2024-01-16T10:58:09;1.30;;;1.30;;
34035;SDS011;63481;52.588;22.472;2024-01-16T11:09:01;1.30;;;1.30;;
34035;SDS011;63481;52.588;22.472;2024-01-16T11:14:04;1.30;;;1.30;;
34035;SDS011;63481;52.588;22.472;2024-01-16T11:19:08;2.90;;;1.80;;
34035;SDS011;63481;52.588;22.472;2024-01-16T11:39:42;1.60;;;1.50;;
34035;SDS011;63481;52.588;22.472;2024-01-16T11:44:48;1.40;;;1.40;;
34035;SDS011;63481;52.588;22.472;2024-01-16T11:50:12;2.00;;;1.50;;
34035;SDS011;63481;52.588;22.472;2024-01-16T11:55:30;1.40;;;1.40;;
34035;SDS011;63481;52.588;22.472;2024-01-16T12:00:33;1.40;;;1.40;;
34035;SDS011;63481;52.588;22.472;2024-01-16T12:05:37;1.50;;;1.40;;
34035;SDS011;63481;52.588;22.472;2024-01-16T12:10:46;2.60;;;2.10;;
34035;SDS011;63481;52.588;22.472;2024-01-16T12:16:00;1.30;;;1.30;;
34035;SDS011;63481;52.588;22.472;2024-01-16T12:21:10;1.30;;;1.30;;
34035;SDS011;63481;52.588;22.472;2024-01-16T12:26:19;1.40;;;1.20;;
34035;SDS011;63481;52.588;22.472;2024-01-16T12:31:22;4.60;;;3.00;;
34035;SDS011;63481;52.588;22.472;2024-01-16T12:36:26;1.30;;;1.30;;
34035;SDS011;63481;52.588;22.472;2024-01-16T12:41:29;1.50;;;1.40;;
34035;SDS011;63481;52.588;22.472;2024-01-16T12:46:36;1.60;;;1.50;;
34035;SDS011;63481;52.588;22.472;2024-01-16T12:51:38;1.40;;;1.40;;
34035;SDS011;63481;52.588;22.472;2024-01-16T12:56:40;1.30;;;1.30;;
34035;SDS011;63481;52.588;22.472;2024-01-16T13:01:43;1.30;;;1.30;;
34035;SDS011;63481;52.588;22.472;2024-01-16T13:06:47;1.30;;;1.30;;
34035;SDS011;63481;52.588;22.472;2024-01-16T13:11:50;1.60;;;1.50;;
34035;SDS011;63481;52.588;22.472;2024-01-16T13:16:54;1.50;;;1.50;;
34035;SDS011;63481;52.588;22.472;2024-01-16T13:21:59;1.50;;;1.40;;
34035;SDS011;63481;52.588;22.472;2024-01-16T13:27:01;2.70;;;1.70;;
34035;SDS011;63481;52.588;22.472;2024-01-16T13:32:03;1.70;;;1.60;;
34035;SDS011;63481;52.588;22.472;2024-01-16T13:37:06;1.40;;;1.40;;
34035;SDS011;63481;52.588;22.472;2024-01-16T13:42:09;1.90;;;1.50;;
34035;SDS011;63481;52.588;22.472;2024-01-16T13:47:11;1.90;;;1.80;;
34035;SDS011;63481;52.588;22.472;2024-01-16T13:52:14;1.80;;;1.70;;
34035;SDS011;63481;52.588;22.472;2024-01-16T13:57:16;1.40;;;1.40;;
34035;SDS011;63481;52.588;22.472;2024-01-16T14:02:18;2.20;;;2.00;;
34035;SDS011;63481;52.588;22.472;2024-01-16T14:07:20;1.40;;;1.40;;
34035;SDS011;63481;52.588;22.472;2024-01-16T14:12:23;1.90;;;1.80;;
34035;SDS011;63481;52.588;22.472;2024-01-16T14:17:26;1.30;;;1.30;;
34035;SDS011;63481;52.588;22.472;2024-01-16T14:22:29;2.30;;;2.00;;
34035;SDS011;63481;52.588;22.472;2024-01-16T14:27:31;1.40;;;1.40;;
34035;SDS011;63481;52.588;22.472;2024-01-16T14:32:33;2.10;;;1.80;;
34035;SDS011;63481;52.588;22.472;2024-01-16T14:37:35;1.80;;;1.70;;
34035;SDS011;63481;52.588;22.472;2024-01-16T14:42:39;2.50;;;2.20;;
34035;SDS011;63481;52.588;22.472;2024-01-16T14:47:41;1.60;;;1.50;;
34035;SDS011;63481;52.588;22.472;2024-01-16T14:52:43;2.10;;;1.90;;
34035;SDS011;63481;52.588;22.472;2024-01-16T14:57:46;2.20;;;2.00;;
34035;SDS011;63481;52.588;22.472;2024-01-16T15:02:53;1.90;;;1.60;;
34035;SDS011;63481;52.588;22.472;2024-01-16T15:07:56;1.40;;;1.40;;
34035;SDS011;63481;52.588;22.472;2024-01-16T15:12:58;1.90;;;1.80;;
34035;SDS011;63481;52.588;22.472;2024-01-16T15:18:00;1.40;;;1.40;;
34035;SDS011;63481;52.588;22.472;2024-01-16T15:23:02;1.80;;;1.70;;
34035;SDS011;63481;52.588;22.472;2024-01-16T15:28:05;9.20;;;2.30;;
34035;SDS011;63481;52.588;22.472;2024-01-16T15:33:07;1.50;;;1.40;;
34035;SDS011;63481;52.588;22.472;2024-01-16T15:38:09;1.90;;;1.80;;
34035;SDS011;63481;52.588;22.472;2024-01-16T15:43:12;5.50;;;2.50;;
34035;SDS011;63481;52.588;22.472;2024-01-16T15:48:14;2.00;;;1.70;;
34035;SDS011;63481;52.588;22.472;2024-01-16T15:53:16;1.70;;;1.60;;
34035;SDS011;63481;52.588;22.472;2024-01-16T15:58:18;1.60;;;1.50;;
34035;SDS011;63481;52.588;22.472;2024-01-16T16:03:20;1.50;;;1.40;;
34035;SDS011;63481;52.588;22.472;2024-01-16T16:08:23;4.40;;;3.20;;
34035;SDS011;63481;52.588;22.472;2024-01-16T16:13:25;1.80;;;1.70;;
34035;SDS011;63481;52.588;22.472;2024-01-16T16:18:32;2.80;;;1.70;;
34035;SDS011;63481;52.588;22.472;2024-01-16T16:23:38;2.80;;;2.10;;
34035;SDS011;63481;52.588;22.472;2024-01-16T16:28:40;1.60;;;1.60;;
34035;SDS011;63481;52.588;22.472;2024-01-16T16:33:42;1.30;;;1.30;;
34035;SDS011;63481;52.588;22.472;2024-01-16T16:38:44;1.70;;;1.60;;
34035;SDS011;63481;52.588;22.472;2024-01-16T16:43:46;1.70;;;1.60;;
34035;SDS011;63481;52.588;22.472;2024-01-16T16:48:49;2.00;;;1.90;;
34035;SDS011;63481;52.588;22.472;2024-01-16T16:53:52;1.60;;;1.50;;
34035;SDS011;63481;52.588;22.472;2024-01-16T16:58:55;1.80;;;1.70;;
34035;SDS011;63481;52.588;22.472;2024-01-16T17:03:58;1.70;;;1.60;;
34035;SDS011;63481;52.588;22.472;2024-01-16T17:09:00;1.90;;;1.80;;
34035;SDS011;63481;52.588;22.472;2024-01-16T17:14:02;1.70;;;1.60;;
34035;SDS011;63481;52.588;22.472;2024-01-16T17:19:05;1.70;;;1.60;;
34035;SDS011;63481;52.588;22.472;2024-01-16T17:24:07;2.00;;;1.90;;
34035;SDS011;63481;52.588;22.472;2024-01-16T17:29:09;2.40;;;2.20;;
34035;SDS011;63481;52.588;22.472;2024-01-16T17:34:11;2.90;;;2.30;;
34035;SDS011;63481;52.588;22.472;2024-01-16T17:39:14;2.60;;;2.30;;
34035;SDS011;63481;52.588;22.472;2024-01-16T17:44:19;2.00;;;1.90;;
34035;SDS011;63481;52.588;22.472;2024-01-16T17:49:21;2.00;;;1.90;;
34035;SDS011;63481;52.588;22.472;2024-01-16T17:54:23;1.50;;;1.40;;
34035;SDS011;63481;52.588;22.472;2024-01-16T17:59:25;2.00;;;1.90;;
34035;SDS011;63481;52.588;22.472;2024-01-16T18:04:32;2.40;;;2.20;;
34035;SDS011;63481;52.588;22.472;2024-01-16T18:09:34;2.00;;;1.90;;
34035;SDS011;63481;52.588;22.472;2024-01-16T18:14:37;1.90;;;1.80;;
34035;SDS011;63481;52.588;22.472;2024-01-16T18:19:40;1.90;;;1.80;;
34035;SDS011;63481;52.588;22.472;2024-01-16T18:24:42;2.30;;;2.10;;
34035;SDS011;63481;52.588;22.472;2024-01-16T18:29:44;5.20;;;3.30;;
34035;SDS011;63481;52.588;22.472;2024-01-16T18:34:47;3.30;;;2.60;;
34035;SDS011;63481;52.588;22.472;2024-01-16T18:39:49;1.80;;;1.70;;
34035;SDS011;63481;52.588;22.472;2024-01-16T18:44:51;1.60;;;1.50;;
34035;SDS011;63481;52.588;22.472;2024-01-16T18:49:55;1.60;;;1.50;;
34035;SDS011;63481;52.588;22.472;2024-01-16T18:54:57;1.90;;;1.80;;
34035;SDS011;63481;52.588;22.472;2024-01-16T18:59:59;1.80;;;1.70;;
34035;SDS011;63481;52.588;22.472;2024-01-16T19:05:01;1.90;;;1.80;;
34035;SDS011;63481;52.588;22.472;2024-01-16T19:10:04;4.30;;;3.20;;
34035;SDS011;63481;52.588;22.472;2024-01-16T19:15:08;4.50;;;3.00;;
34035;SDS011;63481;52.588;22.472;2024-01-16T19:20:11;1.60;;;1.50;;
34035;SDS011;63481;52.588;22.472;2024-01-16T19:25:14;1.50;;;1.40;;
34035;SDS011;63481;52.588;22.472;2024-01-16T19:30:18;1.60;;;1.50;;
34035;SDS011;63481;52.588;22.472;2024-01-16T19:35:24;1.80;;;1.70;;
34035;SDS011;63481;52.588;22.472;2024-01-16T19:40:26;2.80;;;2.50;;
34035;SDS011;63481;52.588;22.472;2024-01-16T19:45:28;1.80;;;1.70;;
34035;SDS011;63481;52.588;22.472;2024-01-16T19:50:31;1.80;;;1.70;;
34035;SDS011;63481;52.588;22.472;2024-01-16T19:55:35;2.10;;;2.00;;
34035;SDS011;63481;52.588;22.472;2024-01-16T20:00:37;1.60;;;1.50;;
34035;SDS011;63481;52.588;22.472;2024-01-16T20:05:44;2.20;;;2.00;;
34035;SDS011;63481;52.588;22.472;2024-01-16T20:10:46;2.20;;;2.00;;
34035;SDS011;63481;52.588;22.472;2024-01-16T20:15:48;2.90;;;2.60;;
34035;SDS011;63481;52.588;22.472;2024-01-16T20:20:50;1.90;;;1.80;;
34035;SDS011;63481;52.588;22.472;2024-01-16T20:25:52;4.40;;;2.90;;
34035;SDS011;63481;52.588;22.472;2024-01-16T20:30:54;2.40;;;2.20;;
34035;SDS011;63481;52.588;22.472;2024-01-16T20:35:56;2.20;;;2.00;;
34035;SDS011;63481;52.588;22.472;2024-01-16T20:40:58;1.70;;;1.60;;
34035;SDS011;63481;52.588;22.472;2024-01-16T20:46:00;2.50;;;2.10;;
34035;SDS011;63481;52.588;22.472;2024-01-16T20:51:03;2.10;;;2.00;;
34035;SDS011;63481;52.588;22.472;2024-01-16T20:56:07;4.10;;;3.40;;
34035;SDS011;63481;52.588;22.472;2024-01-16T21:01:09;2.60;;;2.30;;
34035;SDS011;63481;52.588;22.472;2024-01-16T21:06:11;9.40;;;3.10;;
34035;SDS011;63481;52.588;22.472;2024-01-16T21:11:13;2.60;;;2.10;;
34035;SDS011;63481;52.588;22.472;2024-01-16T21:16:15;1.70;;;1.60;;
34035;SDS011;63481;52.588;22.472;2024-01-16T21:21:17;3.30;;;2.50;;
34035;SDS011;63481;52.588;22.472;2024-01-16T21:26:19;6.00;;;3.90;;
34035;SDS011;63481;52.588;22.472;2024-01-16T21:31:22;5.30;;;3.60;;
34035;SDS011;63481;52.588;22.472;2024-01-16T21:36:24;4.20;;;2.20;;
34035;SDS011;63481;52.588;22.472;2024-01-16T21:41:26;3.10;;;2.00;;
34035;SDS011;63481;52.588;22.472;2024-01-16T21:46:28;15.90;;;4.00;;
34035;SDS011;63481;52.588;22.472;2024-01-16T21:51:30;6.70;;;3.80;;
34035;SDS011;63481;52.588;22.472;2024-01-16T21:56:33;13.80;;;4.80;;
34035;SDS011;63481;52.588;22.472;2024-01-16T22:01:38;4.40;;;3.90;;
34035;SDS011;63481;52.588;22.472;2024-01-16T22:06:40;4.40;;;3.50;;
34035;SDS011;63481;52.588;22.472;2024-01-16T22:11:42;3.20;;;3.00;;
34035;SDS011;63481;52.588;22.472;2024-01-16T22:16:44;5.10;;;3.90;;
34035;SDS011;63481;52.588;22.472;2024-01-16T22:21:46;5.40;;;3.90;;
34035;SDS011;63481;52.588;22.472;2024-01-16T22:26:48;3.10;;;2.60;;
34035;SDS011;63481;52.588;22.472;2024-01-16T22:31:50;6.30;;;2.90;;
34035;SDS011;63481;52.588;22.472;2024-01-16T22:36:52;2.80;;;2.50;;
34035;SDS011;63481;52.588;22.472;2024-01-16T22:41:55;2.60;;;2.40;;
34035;SDS011;63481;52.588;22.472;2024-01-16T22:46:57;4.00;;;3.60;;
34035;SDS011;63481;52.588;22.472;2024-01-16T22:51:59;1.90;;;1.80;;
34035;SDS011;63481;52.588;22.472;2024-01-16T22:57:01;5.50;;;3.30;;
34035;SDS011;63481;52.588;22.472;2024-01-16T23:02:03;3.10;;;2.80;;
34035;SDS011;63481;52.588;22.472;2024-01-16T23:07:07;2.80;;;2.60;;
34035;SDS011;63481;52.588;22.472;2024-01-16T23:12:09;4.80;;;4.00;;
34035;SDS011;63481;52.588;22.472;2024-01-16T23:17:12;4.90;;;3.90;;
34035;SDS011;63481;52.588;22.472;2024-01-16T23:22:15;9.50;;;4.90;;
34035;SDS011;63481;52.588;22.472;2024-01-16T23:27:17;5.30;;;4.40;;
34035;SDS011;63481;52.588;22.472;2024-01-16T23:32:19;3.00;;;2.80;;
34035;SDS011;63481;52.588;22.472;2024-01-16T23:37:21;4.40;;;3.50;;
34035;SDS011;63481;52.588;22.472;2024-01-16T23:42:25;8.50;;;5.60;;
34035;SDS011;63481;52.588;22.472;2024-01-16T23:47:33;3.30;;;2.70;;
34035;SDS011;63481;52.588;22.472;2024-01-16T23:52:39;2.60;;;2.30;;
